createdAt,value
2023-05-13T00:19:58.208Z,100
2023-05-13T00:49:22.221Z,100
2023-05-13T01:18:18.533Z,100
2023-05-13T01:47:35.968Z,100
2023-05-13T02:16:31.275Z,100
2023-05-13T02:45:21.443Z,100
2023-05-13T03:14:20.651Z,100
2023-05-13T03:43:30.103Z,100
2023-05-13T04:12:31.480Z,100
2023-05-13T04:41:38.293Z,87.04
2023-05-13T05:10:30.312Z,100
2023-05-13T05:39:45.961Z,97.28
2023-05-13T06:08:44.242Z,100
2023-05-13T06:37:43.077Z,94.95
2023-05-13T07:06:58.080Z,88.78
2023-05-13T09:31:35.026Z,63.23
2023-05-13T10:00:40.354Z,57.43
2023-05-13T10:28:52.565Z,57.06
2023-05-13T10:57:49.238Z,57.08
2023-05-13T11:26:49.002Z,55.78
2023-05-13T11:55:33.316Z,57.75
2023-05-13T12:24:30.482Z,59.15
2023-05-13T12:53:30.237Z,59.46
2023-05-13T13:22:23.095Z,58.37
2023-05-13T13:51:24.951Z,57.52
2023-05-13T14:20:22.078Z,58.43
2023-05-13T14:49:04.157Z,55.67
2023-05-13T15:18:01.934Z,58.49
2023-05-13T15:47:00.231Z,59.35
2023-05-13T16:15:53.023Z,61.37
2023-05-13T16:44:55.052Z,59.81
2023-05-13T17:13:49.234Z,60.18
2023-05-13T17:42:58.942Z,61.33
2023-05-13T18:12:05.642Z,61.54
2023-05-13T18:41:10.033Z,64.47
2023-05-13T19:10:09.590Z,67.39
2023-05-13T19:39:13.761Z,68.41
2023-05-13T20:08:17.346Z,71.1
2023-05-13T20:37:24.348Z,76.78
2023-05-13T21:05:48.695Z,79.99
2023-05-13T21:34:39.881Z,80.88
2023-05-13T22:03:02.981Z,80.91
2023-05-13T22:31:13.487Z,89.94
2023-05-13T22:59:31.617Z,87.64
2023-05-13T23:27:51.916Z,87.71
2023-05-13T23:56:10.742Z,90.93
